VIR5C EGLL-KMIA
Flight info
| Callsign | VIR5C |
|---|---|
| Flight time | N/A |
| Altitude | 24000 |
| Route | CPT L9 KITFE/N0472F360 L9 TIGWE DCT FELCA DCT NICXI DCT OFSOX DCT BANBA DCT ADARA/M083F370 DCT 5130N02000W 5030N03000W 49N040W 4730N05000W DCT OMSAT/M083F380 DCT CARAC M201 DRYED DCT KINER/M083F400 DCT JNFOX DCT FLUPS DCT MAPYL/N0474F400 G437 ZQA BR49V NICKO VIICE2 |
| Aircraft | A333/H-SDE3GHIJ2J3J5M1RVWXY/LB2D1 |
Departure
| Time | 2026-05-07 06:22 |
|---|---|
| Airport | London Heathrow Airport (EGLL) |
Arrival
| Time | N/A |
|---|---|
| Airport | Miami International Airport (KMIA) |
| Time | Latitude | Longitude | Altitude | Speed | Heading |
|---|---|---|---|---|---|
| 2026-05-07 05:43 | 51.47078 | -0.46590 | 90 ft | 0 kts | 58° |
| 2026-05-07 06:08 | 51.47070 | -0.46614 | 90 ft | 4 kts | 71° |
| 2026-05-07 06:08 | 51.47067 | -0.46652 | 90 ft | 4 kts | 109° |
| 2026-05-07 06:08 | 51.47081 | -0.46686 | 92 ft | 4 kts | 144° |
| 2026-05-07 06:09 | 51.47104 | -0.46707 | 92 ft | 4 kts | 160° |
| 2026-05-07 06:09 | 51.47130 | -0.46719 | 91 ft | 4 kts | 169° |
| 2026-05-07 06:09 | 51.47156 | -0.46725 | 90 ft | 4 kts | 178° |
| 2026-05-07 06:09 | 51.47161 | -0.46725 | 90 ft | 0 kts | 180° |
| 2026-05-07 06:14 | 51.47085 | -0.46724 | 92 ft | 12 kts | 181° |
| 2026-05-07 06:14 | 51.47013 | -0.46684 | 93 ft | 11 kts | 150° |
| 2026-05-07 06:15 | 51.46954 | -0.46620 | 94 ft | 10 kts | 146° |
| 2026-05-07 06:15 | 51.46897 | -0.46557 | 95 ft | 10 kts | 145° |
| 2026-05-07 06:15 | 51.46840 | -0.46495 | 94 ft | 10 kts | 146° |
| 2026-05-07 06:15 | 51.46781 | -0.46462 | 93 ft | 8 kts | 191° |
| 2026-05-07 06:16 | 51.46754 | -0.46521 | 94 ft | 6 kts | 251° |
| 2026-05-07 06:16 | 51.46749 | -0.46589 | 93 ft | 6 kts | 268° |
| 2026-05-07 06:16 | 51.46748 | -0.46658 | 93 ft | 6 kts | 269° |
| 2026-05-07 06:16 | 51.46748 | -0.46726 | 93 ft | 6 kts | 270° |
| 2026-05-07 06:17 | 51.46748 | -0.46796 | 93 ft | 6 kts | 270° |
| 2026-05-07 06:17 | 51.46748 | -0.46867 | 93 ft | 6 kts | 269° |
| 2026-05-07 06:17 | 51.46747 | -0.46937 | 93 ft | 6 kts | 269° |
| 2026-05-07 06:17 | 51.46747 | -0.47050 | 93 ft | 14 kts | 269° |
| 2026-05-07 06:18 | 51.46747 | -0.47169 | 93 ft | 8 kts | 269° |
| 2026-05-07 06:18 | 51.46746 | -0.47258 | 93 ft | 8 kts | 268° |
| 2026-05-07 06:18 | 51.46745 | -0.47348 | 93 ft | 8 kts | 270° |
| 2026-05-07 06:18 | 51.46745 | -0.47439 | 93 ft | 8 kts | 270° |
| 2026-05-07 06:19 | 51.46745 | -0.47532 | 93 ft | 10 kts | 270° |
| 2026-05-07 06:19 | 51.46745 | -0.47675 | 93 ft | 16 kts | 269° |
| 2026-05-07 06:19 | 51.46744 | -0.47882 | 91 ft | 21 kts | 270° |
| 2026-05-07 06:19 | 51.46743 | -0.48140 | 90 ft | 26 kts | 270° |
| 2026-05-07 06:20 | 51.46744 | -0.48442 | 92 ft | 25 kts | 271° |
| 2026-05-07 06:20 | 51.46729 | -0.48677 | 93 ft | 14 kts | 241° |
| 2026-05-07 06:20 | 51.46649 | -0.48743 | 94 ft | 13 kts | 195° |
| 2026-05-07 06:20 | 51.46558 | -0.48783 | 93 ft | 14 kts | 187° |
| 2026-05-07 06:21 | 51.46483 | -0.48691 | 94 ft | 20 kts | 106° |
| 2026-05-07 06:21 | 51.46479 | -0.48475 | 92 ft | 43 kts | 90° |
| 2026-05-07 06:21 | 51.46483 | -0.47638 | 93 ft | 109 kts | 90° |
| 2026-05-07 06:21 | 51.46486 | -0.46104 | 129 ft | 165 kts | 89° |
| 2026-05-07 06:22 | 51.46510 | -0.44068 | 416 ft | 205 kts | 88° |
| 2026-05-07 06:22 | 51.46413 | -0.38838 | 1464 ft | 258 kts | 94° |
| 2026-05-07 06:22 | 51.46352 | -0.35967 | 2606 ft | 260 kts | 89° |
| 2026-05-07 06:23 | 51.46585 | -0.33152 | 4005 ft | 253 kts | 78° |
| 2026-05-07 06:23 | 51.46709 | -0.30356 | 5111 ft | 257 kts | 99° |
| 2026-05-07 06:23 | 51.46105 | -0.27575 | 5766 ft | 276 kts | 118° |
| 2026-05-07 06:23 | 51.44980 | -0.24921 | 6162 ft | 305 kts | 133° |
| 2026-05-07 06:24 | 51.43360 | -0.22493 | 6499 ft | 333 kts | 140° |
| 2026-05-07 06:24 | 51.41553 | -0.20032 | 6772 ft | 349 kts | 140° |
| 2026-05-07 06:24 | 51.39489 | -0.17939 | 7288 ft | 355 kts | 160° |
| 2026-05-07 06:24 | 51.37104 | -0.17232 | 8134 ft | 352 kts | 180° |
| 2026-05-07 06:25 | 51.34791 | -0.17890 | 8748 ft | 356 kts | 202° |
| 2026-05-07 06:25 | 51.32690 | -0.20087 | 9415 ft | 360 kts | 226° |
| 2026-05-07 06:25 | 51.31318 | -0.23434 | 10090 ft | 364 kts | 249° |
| 2026-05-07 06:25 | 51.30853 | -0.27408 | 10748 ft | 367 kts | 270° |
| 2026-05-07 06:26 | 51.31280 | -0.31418 | 11441 ft | 370 kts | 287° |
| 2026-05-07 06:26 | 51.32140 | -0.35317 | 12142 ft | 373 kts | 290° |
| 2026-05-07 06:26 | 51.33025 | -0.39234 | 12823 ft | 377 kts | 289° |
| 2026-05-07 06:26 | 51.33885 | -0.43219 | 13508 ft | 381 kts | 288° |
| 2026-05-07 06:27 | 51.34723 | -0.47261 | 14166 ft | 384 kts | 288° |
| 2026-05-07 06:27 | 51.35547 | -0.51344 | 14776 ft | 388 kts | 287° |
| 2026-05-07 06:27 | 51.36353 | -0.55399 | 15386 ft | 391 kts | 287° |
| 2026-05-07 06:27 | 51.37167 | -0.59534 | 15987 ft | 394 kts | 287° |
| 2026-05-07 06:28 | 51.37989 | -0.63734 | 16587 ft | 397 kts | 287° |
| 2026-05-07 06:28 | 51.38814 | -0.67967 | 17181 ft | 400 kts | 287° |
| 2026-05-07 06:28 | 51.39645 | -0.72244 | 17769 ft | 403 kts | 287° |
| 2026-05-07 06:28 | 51.40478 | -0.76546 | 18340 ft | 407 kts | 287° |
| 2026-05-07 06:29 | 51.41319 | -0.80897 | 18812 ft | 410 kts | 287° |
| 2026-05-07 06:29 | 51.42162 | -0.85272 | 19304 ft | 413 kts | 287° |
| 2026-05-07 06:29 | 51.43008 | -0.89673 | 19785 ft | 415 kts | 287° |
| 2026-05-07 06:29 | 51.43862 | -0.94123 | 20251 ft | 418 kts | 287° |
| 2026-05-07 06:30 | 51.44717 | -0.98589 | 20722 ft | 421 kts | 287° |
| 2026-05-07 06:30 | 51.45575 | -1.03084 | 21169 ft | 424 kts | 287° |
| 2026-05-07 06:30 | 51.46439 | -1.07622 | 21619 ft | 426 kts | 287° |
| 2026-05-07 06:30 | 51.47302 | -1.12162 | 22062 ft | 429 kts | 287° |
| 2026-05-07 06:31 | 51.48164 | -1.16707 | 22500 ft | 432 kts | 287° |
| 2026-05-07 06:31 | 51.49007 | -1.21407 | 22932 ft | 435 kts | 284° |
| 2026-05-07 06:31 | 51.50089 | -1.25946 | 23334 ft | 438 kts | 300° |
| 2026-05-07 06:31 | 51.51980 | -1.29785 | 23732 ft | 442 kts | 316° |
| 2026-05-07 06:32 | 51.54378 | -1.32888 | 24018 ft | 446 kts | 323° |
| 2026-05-07 06:32 | 51.56949 | -1.35771 | 24125 ft | 456 kts | 325° |
| 2026-05-07 06:32 | 51.59564 | -1.38778 | 24070 ft | 468 kts | 323° |
| 2026-05-07 06:32 | 51.61955 | -1.42383 | 24065 ft | 473 kts | 308° |
| 2026-05-07 06:33 | 51.63773 | -1.46683 | 24077 ft | 457 kts | 300° |
| 2026-05-07 06:33 | 51.65247 | -1.51148 | 24078 ft | 447 kts | 296° |
| 2026-05-07 06:33 | 51.66587 | -1.55665 | 24130 ft | 448 kts | 295° |
| 2026-05-07 06:33 | 51.67917 | -1.60214 | 24426 ft | 450 kts | 295° |
| 2026-05-07 06:34 | 51.69286 | -1.64766 | 24729 ft | 452 kts | 296° |
| 2026-05-07 06:34 | 51.70531 | -1.69418 | 24999 ft | 454 kts | 286° |
| 2026-05-07 06:34 | 51.71225 | -1.74319 | 25281 ft | 456 kts | 279° |
| 2026-05-07 06:34 | 51.71634 | -1.79469 | 25579 ft | 458 kts | 275° |
| 2026-05-07 06:35 | 51.71908 | -1.84601 | 25844 ft | 461 kts | 274° |
| 2026-05-07 06:35 | 51.72156 | -1.89765 | 26140 ft | 463 kts | 274° |
| 2026-05-07 06:35 | 51.72420 | -1.94874 | 26409 ft | 465 kts | 275° |
| 2026-05-07 06:35 | 51.72723 | -2.00081 | 26634 ft | 468 kts | 275° |
| 2026-05-07 06:36 | 51.73060 | -2.05366 | 26903 ft | 470 kts | 276° |
| 2026-05-07 06:36 | 51.73410 | -2.10554 | 27166 ft | 473 kts | 276° |
| 2026-05-07 06:36 | 51.73776 | -2.15828 | 27468 ft | 474 kts | 276° |
| 2026-05-07 06:36 | 51.74146 | -2.21120 | 27753 ft | 475 kts | 276° |
| 2026-05-07 06:37 | 51.74393 | -2.24677 | 27931 ft | 477 kts | 276° |
| 2026-05-07 06:37 | 51.74763 | -2.30028 | 28186 ft | 479 kts | 276° |
| 2026-05-07 06:37 | 51.75129 | -2.35380 | 28451 ft | 481 kts | 276° |
| 2026-05-07 06:37 | 51.75481 | -2.40580 | 28702 ft | 482 kts | 276° |
| 2026-05-07 06:38 | 51.75844 | -2.46009 | 28937 ft | 485 kts | 276° |
| 2026-05-07 06:38 | 51.76204 | -2.51428 | 29165 ft | 487 kts | 276° |
| 2026-05-07 06:38 | 51.76564 | -2.56884 | 29388 ft | 489 kts | 276° |
| 2026-05-07 06:38 | 51.76921 | -2.62340 | 29647 ft | 491 kts | 276° |
| 2026-05-07 06:39 | 51.77278 | -2.67843 | 29872 ft | 493 kts | 276° |
| 2026-05-07 06:39 | 51.77633 | -2.73346 | 30095 ft | 495 kts | 276° |
| 2026-05-07 06:39 | 51.77987 | -2.78889 | 30241 ft | 498 kts | 276° |
| 2026-05-07 06:39 | 51.78341 | -2.84467 | 30415 ft | 500 kts | 276° |
| 2026-05-07 06:40 | 51.78694 | -2.90056 | 30664 ft | 500 kts | 276° |
| 2026-05-07 06:40 | 51.79043 | -2.95638 | 30938 ft | 500 kts | 276° |
| 2026-05-07 06:40 | 51.79390 | -3.01227 | 31197 ft | 500 kts | 276° |
| 2026-05-07 06:40 | 51.79734 | -3.06799 | 31418 ft | 497 kts | 276° |
| 2026-05-07 06:41 | 51.80084 | -3.12314 | 31128 ft | 496 kts | 276° |
| 2026-05-07 06:41 | 51.80440 | -3.17894 | 30678 ft | 501 kts | 276° |
| 2026-05-07 06:41 | 51.81109 | -3.29151 | 30960 ft | 502 kts | 275° |
| 2026-05-07 06:42 | 51.81428 | -3.34763 | 31254 ft | 500 kts | 275° |
| 2026-05-07 06:42 | 51.81744 | -3.40349 | 31481 ft | 500 kts | 275° |
| 2026-05-07 06:42 | 51.82062 | -3.45940 | 31705 ft | 499 kts | 275° |
| 2026-05-07 06:42 | 51.82384 | -3.51538 | 31912 ft | 499 kts | 276° |
| 2026-05-07 06:43 | 51.82850 | -3.57089 | 32129 ft | 499 kts | 279° |
| 2026-05-07 06:43 | 51.83488 | -3.62609 | 32360 ft | 499 kts | 282° |
| 2026-05-07 06:43 | 51.84211 | -3.68090 | 32577 ft | 499 kts | 283° |
| 2026-05-07 06:43 | 51.84964 | -3.73568 | 32799 ft | 498 kts | 283° |
| 2026-05-07 06:44 | 51.85714 | -3.79031 | 33017 ft | 498 kts | 283° |
| 2026-05-07 06:44 | 51.86452 | -3.84509 | 33229 ft | 498 kts | 282° |
| 2026-05-07 06:44 | 51.87174 | -3.89997 | 33443 ft | 498 kts | 282° |
| 2026-05-07 06:44 | 51.87881 | -3.95474 | 33647 ft | 498 kts | 282° |
| 2026-05-07 06:45 | 51.88580 | -4.00967 | 33852 ft | 498 kts | 282° |
| 2026-05-07 06:45 | 51.89272 | -4.06457 | 34050 ft | 498 kts | 282° |
| 2026-05-07 06:45 | 51.89961 | -4.11957 | 34243 ft | 497 kts | 282° |
| 2026-05-07 06:45 | 51.90645 | -4.17435 | 34466 ft | 496 kts | 282° |
| 2026-05-07 06:46 | 51.91315 | -4.22820 | 34677 ft | 495 kts | 281° |
| 2026-05-07 06:46 | 51.91993 | -4.28286 | 34875 ft | 494 kts | 281° |
| 2026-05-07 06:46 | 51.92665 | -4.33727 | 35064 ft | 493 kts | 281° |
| 2026-05-07 06:46 | 51.93335 | -4.39160 | 35237 ft | 493 kts | 281° |
| 2026-05-07 06:47 | 51.94673 | -4.50090 | 35481 ft | 494 kts | 281° |
| 2026-05-07 06:47 | 51.95338 | -4.55556 | 35676 ft | 493 kts | 281° |
| 2026-05-07 06:47 | 51.95997 | -4.60994 | 35862 ft | 492 kts | 281° |
| 2026-05-07 06:48 | 51.97316 | -4.71943 | 35990 ft | 496 kts | 281° |
| 2026-05-07 06:48 | 51.98632 | -4.82943 | 36004 ft | 496 kts | 281° |
| 2026-05-07 06:49 | 51.99932 | -4.93900 | 36003 ft | 494 kts | 281° |
| 2026-05-07 06:49 | 52.01218 | -5.04838 | 36002 ft | 493 kts | 281° |
| 2026-05-07 06:50 | 52.02491 | -5.15779 | 36002 ft | 493 kts | 280° |
| 2026-05-07 06:50 | 52.02798 | -5.26835 | 36001 ft | 491 kts | 264° |
| 2026-05-07 06:51 | 52.01941 | -5.37839 | 35999 ft | 492 kts | 261° |
| 2026-05-07 06:51 | 52.00957 | -5.48830 | 35996 ft | 492 kts | 262° |
| 2026-05-07 06:52 | 52.00078 | -5.59853 | 35996 ft | 492 kts | 262° |
| 2026-05-07 06:52 | 51.99266 | -5.70887 | 35993 ft | 492 kts | 263° |
| 2026-05-07 06:53 | 51.98462 | -5.81916 | 35993 ft | 492 kts | 263° |
| 2026-05-07 06:53 | 51.97645 | -5.92952 | 35991 ft | 492 kts | 262° |
| 2026-05-07 06:54 | 51.96816 | -6.03948 | 35993 ft | 491 kts | 262° |
| 2026-05-07 06:54 | 51.95974 | -6.14951 | 35990 ft | 491 kts | 262° |
| 2026-05-07 06:55 | 51.95214 | -6.25955 | 35990 ft | 492 kts | 265° |
| 2026-05-07 06:55 | 51.94953 | -6.37033 | 35992 ft | 492 kts | 268° |
| 2026-05-07 06:56 | 51.94854 | -6.48049 | 35980 ft | 492 kts | 268° |
| 2026-05-07 06:56 | 51.94721 | -6.59131 | 35980 ft | 492 kts | 268° |
| 2026-05-07 06:57 | 51.94539 | -6.70226 | 35979 ft | 492 kts | 268° |
| 2026-05-07 06:57 | 51.94332 | -6.81307 | 35980 ft | 492 kts | 267° |
| 2026-05-07 06:58 | 51.94112 | -6.92395 | 35975 ft | 492 kts | 267° |
| 2026-05-07 06:58 | 51.93884 | -7.03505 | 35974 ft | 494 kts | 267° |
| 2026-05-07 06:59 | 51.93646 | -7.14619 | 35968 ft | 493 kts | 266° |
| 2026-05-07 06:59 | 51.93397 | -7.25745 | 35967 ft | 494 kts | 267° |
| 2026-05-07 07:00 | 51.93138 | -7.36851 | 35972 ft | 493 kts | 266° |
| 2026-05-07 07:00 | 51.92869 | -7.47941 | 35963 ft | 492 kts | 267° |
| 2026-05-07 07:01 | 51.92590 | -7.59004 | 35960 ft | 492 kts | 266° |
| 2026-05-07 07:01 | 51.92301 | -7.70071 | 35957 ft | 492 kts | 266° |
| 2026-05-07 07:02 | 51.92002 | -7.81137 | 35958 ft | 492 kts | 266° |
| 2026-05-07 07:02 | 51.91692 | -7.92180 | 35954 ft | 491 kts | 266° |
| 2026-05-07 07:03 | 51.91373 | -8.03214 | 35958 ft | 490 kts | 266° |
| 2026-05-07 07:03 | 51.91044 | -8.14231 | 35958 ft | 490 kts | 266° |
| 2026-05-07 07:04 | 51.90704 | -8.25252 | 35957 ft | 490 kts | 266° |
| 2026-05-07 07:04 | 51.90354 | -8.36270 | 35958 ft | 490 kts | 266° |
| 2026-05-07 07:05 | 51.89994 | -8.47280 | 35966 ft | 489 kts | 266° |
| 2026-05-07 07:05 | 51.89624 | -8.58279 | 35965 ft | 489 kts | 266° |
| 2026-05-07 07:06 | 51.89244 | -8.69272 | 35965 ft | 489 kts | 266° |
| 2026-05-07 07:06 | 51.88853 | -8.80273 | 35971 ft | 489 kts | 266° |
| 2026-05-07 07:07 | 51.88453 | -8.91259 | 35968 ft | 489 kts | 265° |
| 2026-05-07 07:07 | 51.88042 | -9.02231 | 35971 ft | 488 kts | 265° |
| 2026-05-07 07:08 | 51.87624 | -9.13129 | 35971 ft | 488 kts | 265° |
| 2026-05-07 07:08 | 51.87193 | -9.24100 | 35971 ft | 488 kts | 265° |
| 2026-05-07 07:09 | 51.86753 | -9.35060 | 35972 ft | 488 kts | 265° |
| 2026-05-07 07:09 | 51.86303 | -9.46015 | 35968 ft | 488 kts | 265° |
| 2026-05-07 07:10 | 51.85842 | -9.56954 | 35971 ft | 488 kts | 265° |
| 2026-05-07 07:10 | 51.85371 | -9.67898 | 35968 ft | 488 kts | 265° |
| 2026-05-07 07:11 | 51.84891 | -9.78834 | 35974 ft | 488 kts | 265° |
| 2026-05-07 07:11 | 51.84400 | -9.89767 | 35969 ft | 487 kts | 265° |
| 2026-05-07 07:12 | 51.83900 | -10.00676 | 35969 ft | 487 kts | 265° |
| 2026-05-07 07:12 | 51.83391 | -10.11583 | 35968 ft | 486 kts | 265° |
| 2026-05-07 07:13 | 51.82871 | -10.22486 | 35966 ft | 486 kts | 265° |
| 2026-05-07 07:13 | 51.82340 | -10.33395 | 35965 ft | 486 kts | 264° |
| 2026-05-07 07:14 | 51.81800 | -10.44287 | 35963 ft | 486 kts | 264° |
| 2026-05-07 07:14 | 51.81250 | -10.55180 | 35955 ft | 486 kts | 264° |
| 2026-05-07 07:15 | 51.80690 | -10.66058 | 35958 ft | 486 kts | 264° |
| 2026-05-07 07:15 | 51.80121 | -10.76939 | 35956 ft | 486 kts | 263° |
| 2026-05-07 07:16 | 51.79542 | -10.87794 | 35953 ft | 485 kts | 263° |
| 2026-05-07 07:16 | 51.78953 | -10.98645 | 35949 ft | 485 kts | 264° |
| 2026-05-07 07:17 | 51.78355 | -11.09486 | 35953 ft | 485 kts | 263° |
| 2026-05-07 07:17 | 51.77747 | -11.20322 | 35950 ft | 485 kts | 263° |
| 2026-05-07 07:18 | 51.77129 | -11.31146 | 35949 ft | 483 kts | 264° |
| 2026-05-07 07:18 | 51.76505 | -11.41922 | 35946 ft | 482 kts | 264° |
| 2026-05-07 07:19 | 51.75871 | -11.52687 | 35947 ft | 482 kts | 263° |
| 2026-05-07 07:19 | 51.75227 | -11.63457 | 35947 ft | 482 kts | 263° |
| 2026-05-07 07:20 | 51.74573 | -11.74210 | 35946 ft | 481 kts | 263° |
| 2026-05-07 07:20 | 51.73913 | -11.84909 | 35943 ft | 479 kts | 263° |
| 2026-05-07 07:21 | 51.73244 | -11.95595 | 35944 ft | 478 kts | 263° |
| 2026-05-07 07:21 | 51.72565 | -12.06271 | 35944 ft | 479 kts | 263° |
| 2026-05-07 07:22 | 51.71877 | -12.16945 | 35940 ft | 479 kts | 263° |
| 2026-05-07 07:22 | 51.71180 | -12.27603 | 35941 ft | 476 kts | 262° |
| 2026-05-07 07:23 | 51.70483 | -12.38109 | 35938 ft | 474 kts | 263° |
| 2026-05-07 07:23 | 51.69773 | -12.48680 | 35940 ft | 474 kts | 263° |
| 2026-05-07 07:24 | 51.69053 | -12.59231 | 35941 ft | 474 kts | 263° |
| 2026-05-07 07:24 | 51.68325 | -12.69790 | 35938 ft | 472 kts | 263° |
| 2026-05-07 07:25 | 51.67219 | -12.85542 | 35940 ft | 471 kts | 262° |
| 2026-05-07 07:26 | 51.66472 | -12.95999 | 35932 ft | 471 kts | 262° |
| 2026-05-07 07:26 | 51.65834 | -13.04780 | 35932 ft | 471 kts | 262° |
| 2026-05-07 07:27 | 51.65071 | -13.15182 | 35934 ft | 471 kts | 262° |
| 2026-05-07 07:27 | 51.64296 | -13.25650 | 35944 ft | 471 kts | 262° |
| 2026-05-07 07:27 | 51.63903 | -13.30888 | 36056 ft | 471 kts | 262° |
| 2026-05-07 07:28 | 51.63508 | -13.36129 | 36193 ft | 471 kts | 262° |
| 2026-05-07 07:28 | 51.63113 | -13.41340 | 36401 ft | 469 kts | 262° |
| 2026-05-07 07:28 | 51.62716 | -13.46553 | 36522 ft | 469 kts | 262° |
| 2026-05-07 07:29 | 51.61916 | -13.56976 | 36735 ft | 469 kts | 262° |
| 2026-05-07 07:29 | 51.61514 | -13.62178 | 36880 ft | 469 kts | 262° |
| 2026-05-07 07:29 | 51.61109 | -13.67384 | 36938 ft | 470 kts | 262° |
| 2026-05-07 07:30 | 51.60292 | -13.77823 | 36938 ft | 470 kts | 262° |
| 2026-05-07 07:30 | 51.59467 | -13.88244 | 36945 ft | 469 kts | 262° |
| 2026-05-07 07:31 | 51.58632 | -13.98654 | 36945 ft | 469 kts | 262° |
| 2026-05-07 07:31 | 51.57786 | -14.09055 | 36942 ft | 469 kts | 261° |
| 2026-05-07 07:32 | 51.56932 | -14.19454 | 36941 ft | 468 kts | 261° |
| 2026-05-07 07:32 | 51.56070 | -14.29827 | 36942 ft | 468 kts | 261° |
| 2026-05-07 07:33 | 51.55200 | -14.40192 | 36944 ft | 468 kts | 261° |
| 2026-05-07 07:33 | 51.54320 | -14.50551 | 36942 ft | 468 kts | 261° |
| 2026-05-07 07:34 | 51.53431 | -14.60905 | 36950 ft | 468 kts | 261° |
| 2026-05-07 07:34 | 51.52536 | -14.71236 | 36947 ft | 466 kts | 261° |
| 2026-05-07 07:35 | 51.51632 | -14.81542 | 36951 ft | 466 kts | 261° |
| 2026-05-07 07:35 | 51.50720 | -14.91846 | 36947 ft | 466 kts | 261° |
| 2026-05-07 07:36 | 51.49967 | -15.02171 | 36935 ft | 467 kts | 266° |
| 2026-05-07 07:36 | 51.50037 | -15.12517 | 36938 ft | 467 kts | 271° |
| 2026-05-07 07:37 | 51.50365 | -15.23004 | 36947 ft | 467 kts | 271° |
| 2026-05-07 07:37 | 51.50642 | -15.33360 | 36949 ft | 467 kts | 271° |
| 2026-05-07 07:38 | 51.50853 | -15.43856 | 36950 ft | 467 kts | 270° |
| 2026-05-07 07:38 | 51.51028 | -15.54194 | 36946 ft | 466 kts | 270° |
| 2026-05-07 07:39 | 51.51191 | -15.64583 | 36948 ft | 465 kts | 270° |
| 2026-05-07 07:39 | 51.51348 | -15.74944 | 36950 ft | 464 kts | 270° |
| 2026-05-07 07:40 | 51.51497 | -15.85293 | 36950 ft | 464 kts | 270° |
| 2026-05-07 07:40 | 51.51638 | -15.95641 | 36950 ft | 464 kts | 270° |
| 2026-05-07 07:41 | 51.51769 | -16.05992 | 36949 ft | 464 kts | 270° |
| 2026-05-07 07:41 | 51.51891 | -16.16325 | 36949 ft | 462 kts | 269° |
| 2026-05-07 07:42 | 51.52004 | -16.26625 | 36955 ft | 461 kts | 269° |
| 2026-05-07 07:42 | 51.52107 | -16.36932 | 36955 ft | 461 kts | 269° |
| 2026-05-07 07:43 | 51.52202 | -16.47233 | 36952 ft | 461 kts | 269° |
| 2026-05-07 07:43 | 51.52287 | -16.57536 | 36963 ft | 461 kts | 269° |
| 2026-05-07 07:44 | 51.52364 | -16.67827 | 36960 ft | 461 kts | 269° |
| 2026-05-07 07:44 | 51.52431 | -16.78117 | 36955 ft | 461 kts | 269° |
| 2026-05-07 07:45 | 51.52489 | -16.88405 | 36953 ft | 461 kts | 269° |
| 2026-05-07 07:45 | 51.52539 | -16.98687 | 36959 ft | 461 kts | 269° |
| 2026-05-07 07:46 | 51.52579 | -17.08974 | 36963 ft | 460 kts | 268° |
| 2026-05-07 07:46 | 51.52610 | -17.19254 | 36955 ft | 461 kts | 268° |
| 2026-05-07 07:47 | 51.52633 | -17.29565 | 36964 ft | 461 kts | 268° |
| 2026-05-07 07:47 | 51.52646 | -17.39867 | 36963 ft | 461 kts | 268° |
| 2026-05-07 07:48 | 51.52650 | -17.50169 | 36964 ft | 461 kts | 268° |
| 2026-05-07 07:48 | 51.52646 | -17.60402 | 36968 ft | 461 kts | 268° |
| 2026-05-07 07:49 | 51.52632 | -17.70699 | 36972 ft | 461 kts | 268° |
| 2026-05-07 07:49 | 51.52610 | -17.81006 | 36971 ft | 462 kts | 268° |
| 2026-05-07 07:50 | 51.52578 | -17.91312 | 36969 ft | 462 kts | 268° |
| 2026-05-07 07:50 | 51.52537 | -18.01619 | 36961 ft | 461 kts | 268° |
| 2026-05-07 07:51 | 51.52487 | -18.11918 | 36974 ft | 462 kts | 268° |
| 2026-05-07 07:51 | 51.52428 | -18.22227 | 36966 ft | 462 kts | 268° |
| 2026-05-07 07:52 | 51.52361 | -18.32554 | 36965 ft | 462 kts | 268° |
| 2026-05-07 07:52 | 51.52284 | -18.42869 | 36966 ft | 462 kts | 268° |
| 2026-05-07 07:53 | 51.52198 | -18.53183 | 36968 ft | 462 kts | 267° |
| 2026-05-07 07:53 | 51.52102 | -18.63497 | 36970 ft | 462 kts | 268° |
| 2026-05-07 07:54 | 51.51998 | -18.73838 | 36973 ft | 463 kts | 268° |
| 2026-05-07 07:54 | 51.51885 | -18.84173 | 36972 ft | 463 kts | 268° |
| 2026-05-07 07:55 | 51.51762 | -18.94521 | 36976 ft | 463 kts | 268° |
| 2026-05-07 07:55 | 51.51631 | -19.04860 | 36975 ft | 463 kts | 268° |
| 2026-05-07 07:56 | 51.51490 | -19.15200 | 36977 ft | 464 kts | 268° |
| 2026-05-07 07:56 | 51.51340 | -19.25559 | 36972 ft | 464 kts | 268° |
| 2026-05-07 07:57 | 51.51180 | -19.35922 | 36968 ft | 464 kts | 267° |
| 2026-05-07 07:57 | 51.51012 | -19.46281 | 36971 ft | 464 kts | 267° |
| 2026-05-07 07:58 | 51.50834 | -19.56649 | 36972 ft | 464 kts | 267° |
| 2026-05-07 07:58 | 51.50648 | -19.67009 | 36970 ft | 465 kts | 267° |
| 2026-05-07 07:59 | 51.50451 | -19.77398 | 36972 ft | 466 kts | 267° |
| 2026-05-07 07:59 | 51.50246 | -19.87798 | 36973 ft | 466 kts | 267° |
| 2026-05-07 08:00 | 51.50031 | -19.98189 | 36971 ft | 466 kts | 267° |
| 2026-05-07 08:00 | 51.49597 | -20.08564 | 36974 ft | 466 kts | 264° |
| 2026-05-07 08:01 | 51.48975 | -20.18902 | 36975 ft | 466 kts | 264° |
| 2026-05-07 08:01 | 51.48337 | -20.29239 | 36978 ft | 466 kts | 264° |
| 2026-05-07 08:02 | 51.47715 | -20.39582 | 36971 ft | 466 kts | 264° |
| 2026-05-07 08:02 | 51.47101 | -20.49871 | 36975 ft | 466 kts | 264° |
| 2026-05-07 08:03 | 51.46477 | -20.60221 | 36965 ft | 466 kts | 264° |
| 2026-05-07 08:03 | 51.45841 | -20.70588 | 36966 ft | 468 kts | 264° |
| 2026-05-07 08:04 | 51.45195 | -20.80961 | 36970 ft | 468 kts | 264° |
| 2026-05-07 08:04 | 51.44540 | -20.91328 | 36970 ft | 468 kts | 264° |
| 2026-05-07 08:05 | 51.43875 | -21.01704 | 36965 ft | 468 kts | 264° |
| 2026-05-07 08:05 | 51.43201 | -21.12066 | 36969 ft | 468 kts | 264° |
| 2026-05-07 08:06 | 51.42518 | -21.22435 | 36970 ft | 468 kts | 264° |
| 2026-05-07 08:06 | 51.41825 | -21.32810 | 36969 ft | 468 kts | 264° |
| 2026-05-07 08:07 | 51.41123 | -21.43180 | 36974 ft | 468 kts | 264° |
| 2026-05-07 08:07 | 51.40411 | -21.53552 | 36969 ft | 468 kts | 264° |
| 2026-05-07 08:08 | 51.39691 | -21.63914 | 36980 ft | 469 kts | 264° |
| 2026-05-07 08:08 | 51.38961 | -21.74281 | 36963 ft | 468 kts | 264° |
| 2026-05-07 08:09 | 51.38222 | -21.84645 | 36977 ft | 469 kts | 264° |
| 2026-05-07 08:09 | 51.37473 | -21.95006 | 36965 ft | 469 kts | 264° |
| 2026-05-07 08:10 | 51.36715 | -22.05367 | 36970 ft | 469 kts | 264° |
| 2026-05-07 08:10 | 51.35949 | -22.15715 | 36975 ft | 469 kts | 264° |
| 2026-05-07 08:11 | 51.35174 | -22.26064 | 36973 ft | 468 kts | 264° |
| 2026-05-07 08:11 | 51.34389 | -22.36408 | 36975 ft | 469 kts | 264° |
| 2026-05-07 08:12 | 51.33596 | -22.46745 | 36975 ft | 468 kts | 264° |
| 2026-05-07 08:12 | 51.32798 | -22.57008 | 36970 ft | 468 kts | 264° |
| 2026-05-07 08:13 | 51.31987 | -22.67336 | 36971 ft | 469 kts | 264° |
| 2026-05-07 08:13 | 51.31166 | -22.77667 | 36974 ft | 468 kts | 264° |
| 2026-05-07 08:14 | 51.30335 | -22.88005 | 36967 ft | 469 kts | 264° |
| 2026-05-07 08:14 | 51.29495 | -22.98332 | 36972 ft | 469 kts | 264° |
| 2026-05-07 08:15 | 51.28645 | -23.08668 | 36974 ft | 469 kts | 264° |
| 2026-05-07 08:15 | 51.27933 | -23.17258 | 36968 ft | 470 kts | 264° |
| 2026-05-07 08:16 | 51.27065 | -23.27606 | 36974 ft | 469 kts | 263° |
| 2026-05-07 08:16 | 51.26189 | -23.37935 | 36974 ft | 471 kts | 264° |
| 2026-05-07 08:17 | 51.25302 | -23.48286 | 36974 ft | 470 kts | 263° |
| 2026-05-07 08:17 | 51.24404 | -23.58643 | 36975 ft | 471 kts | 265° |
| 2026-05-07 08:18 | 51.23497 | -23.69004 | 36973 ft | 472 kts | 264° |
| 2026-05-07 08:18 | 51.22581 | -23.79364 | 36973 ft | 471 kts | 264° |
| 2026-05-07 08:19 | 51.21658 | -23.89717 | 36975 ft | 472 kts | 264° |
| 2026-05-07 08:19 | 51.20723 | -24.00078 | 36964 ft | 472 kts | 264° |
| 2026-05-07 08:20 | 51.19774 | -24.10467 | 36978 ft | 474 kts | 264° |
| 2026-05-07 08:20 | 51.18816 | -24.20858 | 36975 ft | 474 kts | 265° |
| 2026-05-07 08:21 | 51.17848 | -24.31258 | 36979 ft | 474 kts | 264° |
| 2026-05-07 08:21 | 51.16870 | -24.41666 | 36978 ft | 475 kts | 264° |
| 2026-05-07 08:22 | 51.15883 | -24.52064 | 36981 ft | 475 kts | 264° |
| 2026-05-07 08:22 | 51.14883 | -24.62495 | 36977 ft | 476 kts | 263° |
| 2026-05-07 08:23 | 51.13875 | -24.72913 | 36979 ft | 476 kts | 263° |
| 2026-05-07 08:23 | 51.12856 | -24.83334 | 36980 ft | 476 kts | 264° |
| 2026-05-07 08:24 | 51.11828 | -24.93756 | 36988 ft | 476 kts | 264° |
| 2026-05-07 08:24 | 51.10792 | -25.04167 | 36984 ft | 477 kts | 264° |
| 2026-05-07 08:25 | 51.09745 | -25.14583 | 36998 ft | 476 kts | 263° |
| 2026-05-07 08:25 | 51.08689 | -25.24994 | 36995 ft | 477 kts | 264° |
| 2026-05-07 08:26 | 51.07089 | -25.40589 | 36998 ft | 477 kts | 264° |
| 2026-05-07 08:26 | 51.06008 | -25.51003 | 36997 ft | 478 kts | 263° |
| 2026-05-07 08:27 | 51.04917 | -25.61431 | 37000 ft | 479 kts | 263° |
| 2026-05-07 08:27 | 51.03814 | -25.71865 | 37003 ft | 479 kts | 263° |
| 2026-05-07 08:28 | 51.02703 | -25.82289 | 36993 ft | 479 kts | 263° |
| 2026-05-07 08:28 | 51.01582 | -25.92708 | 37008 ft | 479 kts | 263° |
| 2026-05-07 08:29 | 51.00450 | -26.03152 | 37006 ft | 481 kts | 263° |
| 2026-05-07 08:29 | 50.99306 | -26.13606 | 37004 ft | 481 kts | 263° |
| 2026-05-07 08:30 | 50.98153 | -26.24057 | 37007 ft | 481 kts | 264° |
| 2026-05-07 08:30 | 50.96990 | -26.34505 | 37008 ft | 481 kts | 263° |
| 2026-05-07 08:31 | 50.95815 | -26.44967 | 37010 ft | 483 kts | 263° |
| 2026-05-07 08:31 | 50.94628 | -26.55454 | 37009 ft | 483 kts | 263° |
| 2026-05-07 08:32 | 50.93431 | -26.65936 | 37009 ft | 483 kts | 263° |
| 2026-05-07 08:32 | 50.92225 | -26.76416 | 37018 ft | 483 kts | 263° |
| 2026-05-07 08:33 | 50.91020 | -26.86789 | 37011 ft | 483 kts | 263° |
| 2026-05-07 08:33 | 50.89653 | -26.97005 | 37127 ft | 469 kts | 259° |
| 2026-05-07 08:34 | 50.87801 | -27.06803 | 37329 ft | 459 kts | 254° |
| 2026-05-07 08:34 | 50.86685 | -27.11503 | 37477 ft | 453 kts | 251° |
| 2026-05-07 08:34 | 50.85446 | -27.16075 | 37642 ft | 453 kts | 250° |
| 2026-05-07 08:35 | 50.84105 | -27.20605 | 37813 ft | 455 kts | 248° |
| 2026-05-07 08:35 | 50.82664 | -27.25080 | 37996 ft | 458 kts | 246° |
| 2026-05-07 08:35 | 50.81122 | -27.29489 | 38153 ft | 460 kts | 244° |
| 2026-05-07 08:35 | 50.79471 | -27.33837 | 38324 ft | 462 kts | 242° |
| 2026-05-07 08:36 | 50.77714 | -27.38099 | 38493 ft | 464 kts | 239° |
| 2026-05-07 08:36 | 50.75845 | -27.42269 | 38662 ft | 466 kts | 237° |
| 2026-05-07 08:36 | 50.73859 | -27.46342 | 38799 ft | 469 kts | 234° |
| 2026-05-07 08:36 | 50.71761 | -27.50290 | 38934 ft | 471 kts | 232° |
| 2026-05-07 08:37 | 50.69546 | -27.54107 | 39067 ft | 473 kts | 230° |
| 2026-05-07 08:37 | 50.67216 | -27.57776 | 39205 ft | 475 kts | 227° |
| 2026-05-07 08:37 | 50.64766 | -27.61281 | 39321 ft | 477 kts | 224° |
| 2026-05-07 08:37 | 50.62192 | -27.64602 | 39460 ft | 479 kts | 221° |
| 2026-05-07 08:38 | 50.59503 | -27.67712 | 39586 ft | 481 kts | 217° |
| 2026-05-07 08:38 | 50.56701 | -27.70593 | 39708 ft | 482 kts | 214° |
| 2026-05-07 08:38 | 50.53784 | -27.73228 | 39858 ft | 484 kts | 211° |
| 2026-05-07 08:38 | 50.50766 | -27.75590 | 39991 ft | 485 kts | 207° |
| 2026-05-07 08:39 | 50.47655 | -27.77655 | 40120 ft | 487 kts | 203° |
| 2026-05-07 08:39 | 50.44449 | -27.79408 | 40246 ft | 488 kts | 199° |
| 2026-05-07 08:39 | 50.41170 | -27.80816 | 40373 ft | 489 kts | 195° |
| 2026-05-07 08:39 | 50.37831 | -27.81858 | 40507 ft | 490 kts | 190° |
| 2026-05-07 08:40 | 50.34444 | -27.82512 | 40611 ft | 491 kts | 185° |
| 2026-05-07 08:40 | 50.31026 | -27.82752 | 40734 ft | 492 kts | 181° |
| 2026-05-07 08:40 | 50.27609 | -27.82556 | 40862 ft | 492 kts | 176° |
| 2026-05-07 08:40 | 50.24208 | -27.81906 | 40985 ft | 492 kts | 170° |
| 2026-05-07 08:41 | 50.20867 | -27.80787 | 41109 ft | 492 kts | 165° |
| 2026-05-07 08:41 | 50.17608 | -27.79185 | 41237 ft | 491 kts | 159° |
| 2026-05-07 08:41 | 50.14467 | -27.77091 | 41357 ft | 490 kts | 152° |
| 2026-05-07 08:41 | 50.11498 | -27.74516 | 41471 ft | 488 kts | 146° |
| 2026-05-07 08:42 | 50.08736 | -27.71454 | 41585 ft | 486 kts | 139° |
| 2026-05-07 08:42 | 50.06236 | -27.67936 | 41698 ft | 483 kts | 131° |
| 2026-05-07 08:42 | 50.04058 | -27.63992 | 41823 ft | 479 kts | 123° |
| 2026-05-07 08:42 | 50.02250 | -27.59674 | 41929 ft | 475 kts | 114° |
| 2026-05-07 08:43 | 50.00867 | -27.55056 | 42044 ft | 469 kts | 105° |
| 2026-05-07 08:43 | 49.99959 | -27.50226 | 42174 ft | 463 kts | 97° |
| 2026-05-07 08:43 | 49.99570 | -27.45297 | 42287 ft | 457 kts | 88° |
| 2026-05-07 08:43 | 49.99738 | -27.40420 | 42422 ft | 449 kts | 77° |
| 2026-05-07 08:44 | 50.00483 | -27.35759 | 42547 ft | 441 kts | 64° |
| 2026-05-07 08:44 | 50.01797 | -27.31522 | 42665 ft | 432 kts | 53° |
| 2026-05-07 08:44 | 50.03646 | -27.27924 | 42789 ft | 423 kts | 40° |
| 2026-05-07 08:44 | 50.05953 | -27.25197 | 42920 ft | 413 kts | 25° |
| 2026-05-07 08:45 | 50.08550 | -27.23578 | 43044 ft | 404 kts | 9° |
| 2026-05-07 08:45 | 50.11312 | -27.23217 | 43156 ft | 397 kts | 352° |
| 2026-05-07 08:45 | 50.13958 | -27.24262 | 43295 ft | 392 kts | 333° |
| 2026-05-07 08:45 | 50.16158 | -27.26709 | 43425 ft | 390 kts | 312° |
| 2026-05-07 08:46 | 50.17547 | -27.30304 | 43563 ft | 392 kts | 288° |
| 2026-05-07 08:46 | 50.17776 | -27.34512 | 43682 ft | 396 kts | 263° |
| 2026-05-07 08:46 | 50.16762 | -27.38504 | 43739 ft | 403 kts | 234° |
| 2026-05-07 08:46 | 50.14712 | -27.41490 | 43667 ft | 410 kts | 210° |
| 2026-05-07 08:47 | 50.12001 | -27.42944 | 43298 ft | 421 kts | 186° |
| 2026-05-07 08:47 | 50.09080 | -27.42583 | 43006 ft | 425 kts | 160° |
| 2026-05-07 08:47 | 50.06538 | -27.40413 | 43178 ft | 411 kts | 133° |
| 2026-05-07 08:47 | 50.04871 | -27.36965 | 43391 ft | 395 kts | 108° |
| 2026-05-07 08:48 | 50.04248 | -27.32857 | 42917 ft | 392 kts | 83° |
| 2026-05-07 08:48 | 50.04786 | -27.28725 | 42245 ft | 391 kts | 59° |
| 2026-05-07 08:48 | 50.06422 | -27.25490 | 42169 ft | 374 kts | 30° |
| 2026-05-07 08:48 | 50.08686 | -27.23903 | 42518 ft | 349 kts | 5° |
| 2026-05-07 08:49 | 50.11063 | -27.24104 | 42384 ft | 346 kts | 340° |
| 2026-05-07 08:49 | 50.13172 | -27.26008 | 41801 ft | 361 kts | 314° |
| 2026-05-07 08:49 | 50.14517 | -27.29325 | 41732 ft | 367 kts | 288° |
| 2026-05-07 08:49 | 50.14711 | -27.33245 | 42018 ft | 368 kts | 262° |
| 2026-05-07 08:50 | 50.13760 | -27.36999 | 41782 ft | 384 kts | 236° |
| 2026-05-07 08:50 | 50.11773 | -27.39927 | 41258 ft | 408 kts | 212° |
| 2026-05-07 08:50 | 50.09062 | -27.41328 | 41156 ft | 415 kts | 184° |
| 2026-05-07 08:50 | 50.06246 | -27.40836 | 41485 ft | 403 kts | 157° |
| 2026-05-07 08:51 | 50.03875 | -27.38672 | 41589 ft | 395 kts | 133° |
| 2026-05-07 08:51 | 50.02246 | -27.35241 | 41196 ft | 398 kts | 109° |
| 2026-05-07 08:51 | 50.01664 | -27.31086 | 40848 ft | 393 kts | 82° |
| 2026-05-07 08:51 | 50.02256 | -27.27091 | 40948 ft | 370 kts | 56° |
| 2026-05-07 08:52 | 50.03808 | -27.24070 | 40993 ft | 353 kts | 31° |
| 2026-05-07 08:52 | 50.05988 | -27.22484 | 40788 ft | 346 kts | 4° |
| 2026-05-07 08:52 | 50.08363 | -27.22677 | 40615 ft | 345 kts | 339° |
| 2026-05-07 08:52 | 50.10407 | -27.24603 | 40489 ft | 349 kts | 313° |
| 2026-05-07 08:53 | 50.11649 | -27.27816 | 40570 ft | 352 kts | 287° |
| 2026-05-07 08:53 | 50.11807 | -27.31676 | 40311 ft | 371 kts | 261° |
| 2026-05-07 08:53 | 50.10733 | -27.35396 | 40155 ft | 387 kts | 233° |
| 2026-05-07 08:53 | 50.08627 | -27.38032 | 40203 ft | 396 kts | 206° |
| 2026-05-07 08:54 | 50.05942 | -27.39029 | 40162 ft | 403 kts | 179° |
| 2026-05-07 08:54 | 50.03203 | -27.38162 | 40101 ft | 404 kts | 152° |
| 2026-05-07 08:54 | 50.00949 | -27.35628 | 39989 ft | 401 kts | 127° |
| 2026-05-07 08:54 | 49.99541 | -27.31968 | 39941 ft | 392 kts | 102° |
| 2026-05-07 08:55 | 49.99200 | -27.27890 | 40031 ft | 375 kts | 77° |
| 2026-05-07 08:55 | 49.99923 | -27.24127 | 39995 ft | 359 kts | 53° |
| 2026-05-07 08:55 | 50.01553 | -27.21285 | 39779 ft | 352 kts | 28° |
| 2026-05-07 08:55 | 50.03774 | -27.19902 | 39725 ft | 341 kts | 1° |
| 2026-05-07 08:56 | 50.06076 | -27.20256 | 39844 ft | 332 kts | 338° |
| 2026-05-07 08:56 | 50.08023 | -27.22159 | 39728 ft | 338 kts | 313° |
| 2026-05-07 08:56 | 50.09256 | -27.25308 | 39606 ft | 349 kts | 289° |
| 2026-05-07 08:56 | 50.09504 | -27.29103 | 39559 ft | 361 kts | 264° |
| 2026-05-07 08:57 | 50.08641 | -27.32785 | 39639 ft | 371 kts | 239° |
| 2026-05-07 08:57 | 50.06806 | -27.35684 | 39561 ft | 386 kts | 214° |
| 2026-05-07 08:57 | 50.04615 | -27.37160 | 39398 ft | 399 kts | 193° |
| 2026-05-07 08:57 | 50.01844 | -27.37277 | 39450 ft | 400 kts | 167° |
| 2026-05-07 08:58 | 49.99282 | -27.35735 | 39611 ft | 394 kts | 143° |
| 2026-05-07 08:58 | 49.97413 | -27.33042 | 39539 ft | 391 kts | 120° |